Time,TemperatureF,DewpointF,PressureIn,WindDirection,WindDirectionDegrees,WindSpeedMPH,WindSpeedGustMPH,Humidity,HourlyPrecipIn,Conditions,Clouds,dailyrainin,SoftwareType,DateUTC
2013-08-06 00:00:00,67.2,61.5,30.02,SW,229,0.0,0.0,82,0.00,,,0.00,Wunderground v.1.15,2013-08-06 04:00:00,
2013-08-06 00:05:00,67.2,61.2,30.02,SW,236,0.0,0.0,81,0.00,,,0.00,Wunderground v.1.15,2013-08-06 04:05:00,
2013-08-06 00:10:00,67.0,61.0,30.02,SW,235,0.0,0.0,81,0.00,,,0.00,Wunderground v.1.15,2013-08-06 04:10:00,
2013-08-06 00:15:00,66.8,60.8,30.02,WSW,238,0.0,0.0,81,0.00,,,0.00,Wunderground v.1.15,2013-08-06 04:15:00,
2013-08-06 00:20:00,66.7,60.7,30.02,WSW,238,0.0,0.0,81,0.00,,,0.00,Wunderground v.1.15,2013-08-06 04:20:00,
2013-08-06 00:30:00,66.7,60.7,30.02,WNW,285,0.0,0.0,81,0.00,,,0.00,Wunderground v.1.15,2013-08-06 04:30:00,
2013-08-06 00:35:00,66.6,60.6,30.02,West,269,0.0,0.0,81,0.00,,,0.00,Wunderground v.1.15,2013-08-06 04:35:00,
2013-08-06 00:40:00,66.6,60.6,30.02,SSW,201,0.0,0.0,81,0.00,,,0.00,Wunderground v.1.15,2013-08-06 04:40:00,
2013-08-06 00:45:00,66.5,60.5,30.02,SW,220,0.0,0.0,81,0.00,,,0.00,Wunderground v.1.15,2013-08-06 04:45:00,
2013-08-06 00:50:00,66.4,60.7,30.02,SSW,201,0.0,0.0,82,0.00,,,0.00,Wunderground v.1.15,2013-08-06 04:50:00,
2013-08-06 01:00:00,66.2,60.9,30.02,SSW,195,0.0,0.0,83,0.00,,,0.00,Wunderground v.1.15,2013-08-06 05:00:00,
2013-08-06 01:10:00,65.8,60.5,30.02,SSW,194,0.0,0.0,83,0.00,,,0.00,Wunderground v.1.15,2013-08-06 05:10:00,
2013-08-06 01:15:00,65.5,60.5,30.02,SSW,194,0.0,0.0,84,0.00,,,0.00,Wunderground v.1.15,2013-08-06 05:15:00,
2013-08-06 01:20:00,65.2,60.2,30.02,SSW,195,0.0,0.0,84,0.00,,,0.00,Wunderground v.1.15,2013-08-06 05:20:00,
2013-08-06 01:25:00,65.0,60.4,30.02,SSW,194,0.0,0.0,85,0.00,,,0.00,Wunderground v.1.15,2013-08-06 05:25:00,
2013-08-06 01:30:00,64.9,60.3,30.02,SSW,194,0.0,0.0,85,0.00,,,0.00,Wunderground v.1.15,2013-08-06 05:30:00,
2013-08-06 01:40:00,64.5,59.9,30.02,SSW,195,0.0,0.0,85,0.00,,,0.00,Wunderground v.1.15,2013-08-06 05:40:00,
2013-08-06 01:45:00,64.4,59.8,30.02,SSW,195,0.0,0.0,85,0.00,,,0.00,Wunderground v.1.15,2013-08-06 05:45:00,
2013-08-06 01:50:00,64.4,59.8,30.03,SSW,195,0.0,0.0,85,0.00,,,0.00,Wunderground v.1.15,2013-08-06 05:50:00,
2013-08-06 01:55:00,64.4,59.8,30.03,SSW,195,0.0,0.0,85,0.00,,,0.00,Wunderground v.1.15,2013-08-06 05:55:00,
2013-08-06 02:05:00,64.4,59.8,30.02,SSW,195,0.0,0.0,85,0.00,,,0.00,Wunderground v.1.15,2013-08-06 06:05:00,
2013-08-06 02:15:00,64.5,59.2,30.03,SW,219,0.0,0.0,83,0.00,,,0.00,Wunderground v.1.15,2013-08-06 06:15:00,
2013-08-06 02:20:00,64.5,59.2,30.03,SW,219,0.0,0.0,83,0.00,,,0.00,Wunderground v.1.15,2013-08-06 06:20:00,
2013-08-06 02:25:00,64.5,59.2,30.03,SW,220,0.0,0.0,83,0.00,,,0.00,Wunderground v.1.15,2013-08-06 06:25:00,
2013-08-06 02:30:00,64.6,59.3,30.03,SW,219,0.0,0.0,83,0.00,,,0.00,Wunderground v.1.15,2013-08-06 06:30:00,
2013-08-06 02:35:00,64.5,59.2,30.03,SSW,207,0.0,0.0,83,0.00,,,0.00,Wunderground v.1.15,2013-08-06 06:35:00,
2013-08-06 02:45:00,64.5,58.9,30.03,SSW,207,0.0,0.0,82,0.00,,,0.00,Wunderground v.1.15,2013-08-06 06:45:00,
2013-08-06 02:50:00,64.4,58.8,30.03,SSW,207,0.0,0.0,82,0.00,,,0.00,Wunderground v.1.15,2013-08-06 06:50:00,
2013-08-06 02:55:00,64.3,58.7,30.03,SW,215,0.0,0.0,82,0.00,,,0.00,Wunderground v.1.15,2013-08-06 06:55:00,
2013-08-06 03:00:00,64.3,59.0,30.02,SW,215,0.0,0.0,83,0.00,,,0.00,Wunderground v.1.15,2013-08-06 07:00:00,
2013-08-06 03:05:00,64.3,59.0,30.02,SW,215,0.0,0.0,83,0.00,,,0.00,Wunderground v.1.15,2013-08-06 07:05:00,
2013-08-06 03:15:00,64.3,58.7,30.03,SW,215,0.0,0.0,82,0.00,,,0.00,Wunderground v.1.15,2013-08-06 07:15:00,
2013-08-06 03:25:00,64.2,58.6,30.03,SW,215,0.0,0.0,82,0.00,,,0.00,Wunderground v.1.15,2013-08-06 07:25:00,
2013-08-06 03:30:00,64.3,58.7,30.03,SW,215,0.0,0.0,82,0.00,,,0.00,Wunderground v.1.15,2013-08-06 07:30:00,
2013-08-06 03:35:00,64.3,58.3,30.03,SW,215,0.0,0.0,81,0.00,,,0.00,Wunderground v.1.15,2013-08-06 07:35:00,
2013-08-06 03:40:00,64.2,58.2,30.03,SW,215,0.0,0.0,81,0.00,,,0.00,Wunderground v.1.15,2013-08-06 07:40:00,
2013-08-06 03:45:00,64.1,57.8,30.03,SSW,204,0.0,0.0,80,0.00,,,0.00,Wunderground v.1.15,2013-08-06 07:45:00,
2013-08-06 03:55:00,64.1,57.5,30.03,SW,229,0.0,0.0,79,0.00,,,0.00,Wunderground v.1.15,2013-08-06 07:55:00,
2013-08-06 04:00:00,64.1,57.1,30.03,SW,229,0.0,0.0,78,0.00,,,0.00,Wunderground v.1.15,2013-08-06 08:00:00,
2013-08-06 04:05:00,63.9,56.9,30.03,SW,229,0.0,0.0,78,0.00,,,0.00,Wunderground v.1.15,2013-08-06 08:05:00,
2013-08-06 04:10:00,63.8,57.2,30.03,WSW,240,0.0,0.0,79,0.00,,,0.00,Wunderground v.1.15,2013-08-06 08:10:00,
2013-08-06 04:15:00,63.5,56.9,30.03,WSW,240,0.0,0.0,79,0.00,,,0.00,Wunderground v.1.15,2013-08-06 08:15:00,
2013-08-06 04:25:00,63.2,56.6,30.03,WSW,238,0.0,0.0,79,0.00,,,0.00,Wunderground v.1.15,2013-08-06 08:25:00,
2013-08-06 04:35:00,62.8,55.8,30.03,WSW,238,0.0,0.0,78,0.00,,,0.00,Wunderground v.1.15,2013-08-06 08:35:00,
2013-08-06 04:40:00,62.8,55.5,30.03,SW,221,0.0,0.0,77,0.00,,,0.00,Wunderground v.1.15,2013-08-06 08:40:00,
2013-08-06 04:45:00,62.8,55.5,30.03,SW,228,0.0,0.0,77,0.00,,,0.00,Wunderground v.1.15,2013-08-06 08:45:00,
2013-08-06 04:50:00,62.8,55.8,30.03,SW,229,0.0,0.0,78,0.00,,,0.00,Wunderground v.1.15,2013-08-06 08:50:00,
2013-08-06 04:55:00,62.7,55.7,30.03,SW,225,0.0,0.0,78,0.00,,,0.00,Wunderground v.1.15,2013-08-06 08:55:00,
2013-08-06 05:00:00,62.5,55.5,30.03,SW,225,0.0,0.0,78,0.00,,,0.00,Wunderground v.1.15,2013-08-06 09:00:00,
2013-08-06 05:05:00,62.4,55.8,30.04,SSW,210,0.0,0.0,79,0.00,,,0.00,Wunderground v.1.15,2013-08-06 09:05:00,
2013-08-06 05:10:00,62.3,55.7,30.04,SSW,210,0.0,0.0,79,0.00,,,0.00,Wunderground v.1.15,2013-08-06 09:10:00,
2013-08-06 05:15:00,62.1,55.9,30.04,SSW,210,0.0,0.0,80,0.00,,,0.00,Wunderground v.1.15,2013-08-06 09:15:00,
2013-08-06 05:20:00,62.0,56.1,30.04,SW,233,0.0,0.0,81,0.00,,,0.00,Wunderground v.1.15,2013-08-06 09:20:00,
2013-08-06 05:25:00,61.9,55.7,30.04,SW,229,0.0,0.0,80,0.00,,,0.00,Wunderground v.1.15,2013-08-06 09:25:00,
2013-08-06 05:35:00,61.7,55.8,30.04,SW,229,0.0,0.0,81,0.00,,,0.00,Wunderground v.1.15,2013-08-06 09:35:00,
2013-08-06 05:45:00,61.6,55.7,30.04,SW,226,0.0,1.0,81,0.00,,,0.00,Wunderground v.1.15,2013-08-06 09:45:00,
2013-08-06 05:50:00,61.6,55.7,30.04,SW,226,0.0,0.0,81,0.00,,,0.00,Wunderground v.1.15,2013-08-06 09:50:00,
2013-08-06 05:55:00,61.6,55.7,30.04,SW,226,0.0,0.0,81,0.00,,,0.00,Wunderground v.1.15,2013-08-06 09:55:00,
2013-08-06 06:00:00,61.5,55.6,30.04,SW,226,0.0,0.0,81,0.00,,,0.00,Wunderground v.1.15,2013-08-06 10:00:00,
2013-08-06 06:10:00,61.5,56.0,30.05,SW,226,0.0,0.0,82,0.00,,,0.00,Wunderground v.1.15,2013-08-06 10:10:00,
2013-08-06 06:15:00,61.7,56.1,30.05,SW,226,0.0,0.0,82,0.00,,,0.00,Wunderground v.1.15,2013-08-06 10:15:00,
2013-08-06 06:20:00,62.0,56.4,30.05,SW,226,0.0,0.0,82,0.00,,,0.00,Wunderground v.1.15,2013-08-06 10:20:00,
2013-08-06 06:25:00,62.5,56.6,30.05,SW,226,0.0,0.0,81,0.00,,,0.00,Wunderground v.1.15,2013-08-06 10:25:00,
2013-08-06 06:30:00,63.5,57.2,30.05,SW,226,0.0,0.0,80,0.00,,,0.00,Wunderground v.1.15,2013-08-06 10:30:00,
2013-08-06 06:40:00,66.1,58.3,30.05,SW,226,0.0,0.0,76,0.00,,,0.00,Wunderground v.1.15,2013-08-06 10:40:00,
2013-08-06 06:45:00,66.9,58.0,30.05,SW,226,0.0,0.0,73,0.00,,,0.00,Wunderground v.1.15,2013-08-06 10:45:00,
2013-08-06 06:55:00,66.7,57.4,30.05,NW,312,1.0,1.0,72,0.00,,,0.00,Wunderground v.1.15,2013-08-06 10:55:00,
2013-08-06 07:00:00,66.6,56.9,30.05,West,269,1.0,1.0,71,0.00,,,0.00,Wunderground v.1.15,2013-08-06 11:00:00,
2013-08-06 07:05:00,66.8,57.1,30.05,NW,314,2.0,2.0,71,0.00,,,0.00,Wunderground v.1.15,2013-08-06 11:05:00,
2013-08-06 07:10:00,66.8,56.7,30.05,NW,316,2.0,3.0,70,0.00,,,0.00,Wunderground v.1.15,2013-08-06 11:10:00,
2013-08-06 07:15:00,67.0,57.3,30.06,NW,311,2.0,3.0,71,0.00,,,0.00,Wunderground v.1.15,2013-08-06 11:15:00,
2013-08-06 07:20:00,67.3,57.6,30.05,NW,319,2.0,2.0,71,0.00,,,0.00,Wunderground v.1.15,2013-08-06 11:20:00,
2013-08-06 07:25:00,67.6,57.1,30.06,NW,316,2.0,2.0,69,0.00,,,0.00,Wunderground v.1.15,2013-08-06 11:25:00,
2013-08-06 07:30:00,67.7,56.8,30.06,NW,307,2.0,2.0,68,0.00,,,0.00,Wunderground v.1.15,2013-08-06 11:30:00,
2013-08-06 07:35:00,68.1,57.1,30.06,NW,319,2.0,2.0,68,0.00,,,0.00,Wunderground v.1.15,2013-08-06 11:35:00,
2013-08-06 07:40:00,68.3,57.7,30.06,NNW,336,1.0,1.0,69,0.00,,,0.00,Wunderground v.1.15,2013-08-06 11:40:00,
2013-08-06 07:50:00,69.1,58.1,30.06,NNE,15,1.0,1.0,68,0.00,,,0.00,Wunderground v.1.15,2013-08-06 11:50:00,
2013-08-06 08:00:00,69.5,57.2,30.05,NNW,342,2.0,2.0,65,0.00,,,0.00,Wunderground v.1.15,2013-08-06 12:00:00,
2013-08-06 08:05:00,69.7,57.4,30.05,NNW,335,1.0,2.0,65,0.00,,,0.00,Wunderground v.1.15,2013-08-06 12:05:00,
2013-08-06 08:10:00,70.1,58.2,30.05,NW,322,1.0,1.0,66,0.00,,,0.00,Wunderground v.1.15,2013-08-06 12:10:00,
2013-08-06 08:15:00,70.5,57.3,30.05,North,11,1.0,1.0,63,0.00,,,0.00,Wunderground v.1.15,2013-08-06 12:15:00,
2013-08-06 08:25:00,72.0,58.3,30.06,ENE,77,1.0,1.0,62,0.00,,,0.00,Wunderground v.1.15,2013-08-06 12:25:00,
2013-08-06 08:30:00,71.6,59.2,30.06,NNE,25,1.0,1.0,65,0.00,,,0.00,Wunderground v.1.15,2013-08-06 12:30:00,
2013-08-06 08:35:00,71.6,58.3,30.06,ENE,78,2.0,2.0,63,0.00,,,0.00,Wunderground v.1.15,2013-08-06 12:35:00,
2013-08-06 08:40:00,71.8,59.0,30.06,ENE,67,1.0,1.0,64,0.00,,,0.00,Wunderground v.1.15,2013-08-06 12:40:00,
2013-08-06 08:45:00,71.9,59.5,30.06,East,91,1.0,3.0,65,0.00,,,0.00,Wunderground v.1.15,2013-08-06 12:45:00,
2013-08-06 08:55:00,71.8,59.8,30.06,East,84,2.0,3.0,66,0.00,,,0.00,Wunderground v.1.15,2013-08-06 12:55:00,
2013-08-06 09:05:00,70.7,60.0,30.06,ENE,78,3.0,3.0,69,0.00,,,0.00,Wunderground v.1.15,2013-08-06 13:05:00,
2013-08-06 09:10:00,70.4,59.7,30.06,East,81,3.0,3.0,69,0.00,,,0.00,Wunderground v.1.15,2013-08-06 13:10:00,
2013-08-06 09:15:00,70.4,60.1,30.06,East,88,3.0,4.0,70,0.00,,,0.00,Wunderground v.1.15,2013-08-06 13:15:00,
2013-08-06 09:20:00,70.5,59.4,30.07,ESE,109,3.0,3.0,68,0.00,,,0.00,Wunderground v.1.15,2013-08-06 13:20:00,
2013-08-06 09:30:00,71.1,60.0,30.07,East,100,1.0,2.0,68,0.00,,,0.00,Wunderground v.1.15,2013-08-06 13:30:00,
2013-08-06 09:35:00,71.4,59.9,30.07,ESE,122,2.0,2.0,67,0.00,,,0.00,Wunderground v.1.15,2013-08-06 13:35:00,
2013-08-06 09:40:00,71.5,59.1,30.07,ESE,112,2.0,2.0,65,0.00,,,0.00,Wunderground v.1.15,2013-08-06 13:40:00,
2013-08-06 09:45:00,72.1,59.7,30.08,ESE,106,1.0,2.0,65,0.00,,,0.00,Wunderground v.1.15,2013-08-06 13:45:00,
2013-08-06 09:50:00,72.3,59.9,30.08,ESE,112,1.0,3.0,65,0.00,,,0.00,Wunderground v.1.15,2013-08-06 13:50:00,
2013-08-06 09:55:00,72.3,59.4,30.07,ESE,111,2.0,3.0,64,0.00,,,0.00,Wunderground v.1.15,2013-08-06 13:55:00,
2013-08-06 10:05:00,72.5,59.6,30.08,SE,126,3.0,3.0,64,0.00,,,0.00,Wunderground v.1.15,2013-08-06 14:05:00,
2013-08-06 10:15:00,72.6,60.2,30.08,SE,136,3.0,3.0,65,0.00,,,0.00,Wunderground v.1.15,2013-08-06 14:15:00,
2013-08-06 10:20:00,72.8,60.8,30.08,SE,142,3.0,3.0,66,0.00,,,0.00,Wunderground v.1.15,2013-08-06 14:20:00,
2013-08-06 10:25:00,72.7,60.7,30.08,SE,126,3.0,3.0,66,0.00,,,0.00,Wunderground v.1.15,2013-08-06 14:25:00,
2013-08-06 10:30:00,72.8,60.8,30.08,ESE,122,3.0,4.0,66,0.00,,,0.00,Wunderground v.1.15,2013-08-06 14:30:00,
2013-08-06 10:40:00,72.5,60.5,30.08,SE,127,4.0,4.0,66,0.00,,,0.00,Wunderground v.1.15,2013-08-06 14:40:00,
2013-08-06 10:45:00,72.8,59.9,30.08,ESE,117,4.0,4.0,64,0.00,,,0.00,Wunderground v.1.15,2013-08-06 14:45:00,
2013-08-06 10:50:00,72.9,59.6,30.08,SE,138,4.0,4.0,63,0.00,,,0.00,Wunderground v.1.15,2013-08-06 14:50:00,
2013-08-06 10:55:00,73.3,60.4,30.08,SE,143,4.0,4.0,64,0.00,,,0.00,Wunderground v.1.15,2013-08-06 14:55:00,
2013-08-06 11:00:00,73.4,60.0,30.08,SSE,150,4.0,4.0,63,0.00,,,0.00,Wunderground v.1.15,2013-08-06 15:00:00,
2013-08-06 11:10:00,73.1,58.4,30.08,ESE,105,4.0,6.0,60,0.00,,,0.00,Wunderground v.1.15,2013-08-06 15:10:00,
2013-08-06 11:15:00,73.2,60.3,30.08,ESE,117,4.0,6.0,64,0.00,,,0.00,Wunderground v.1.15,2013-08-06 15:15:00,
2013-08-06 11:25:00,73.6,58.9,30.08,ESE,105,4.0,6.0,60,0.00,,,0.00,Wunderground v.1.15,2013-08-06 15:25:00,
2013-08-06 11:30:00,73.3,59.9,30.08,SE,125,5.0,6.0,63,0.00,,,0.00,Wunderground v.1.15,2013-08-06 15:30:00,
2013-08-06 11:35:00,73.2,61.6,30.08,ESE,114,4.0,6.0,67,0.00,,,0.00,Wunderground v.1.15,2013-08-06 15:35:00,
2013-08-06 11:45:00,73.3,62.1,30.09,ESE,103,5.0,7.0,68,0.00,,,0.00,Wunderground v.1.15,2013-08-06 15:45:00,
2013-08-06 11:50:00,73.5,60.1,30.09,SE,124,5.0,5.0,63,0.00,,,0.00,Wunderground v.1.15,2013-08-06 15:50:00,
2013-08-06 11:55:00,73.9,59.6,30.09,SE,142,5.0,5.0,61,0.00,,,0.00,Wunderground v.1.15,2013-08-06 15:55:00,
2013-08-06 12:00:00,74.2,60.3,30.09,SE,135,5.0,5.0,62,0.00,,,0.00,Wunderground v.1.15,2013-08-06 16:00:00,
2013-08-06 12:05:00,73.9,61.8,30.09,ESE,112,5.0,8.0,66,0.00,,,0.00,Wunderground v.1.15,2013-08-06 16:05:00,
2013-08-06 12:10:00,73.6,62.4,30.09,ESE,115,5.0,5.0,68,0.00,,,0.00,Wunderground v.1.15,2013-08-06 16:10:00,
2013-08-06 12:20:00,74.2,60.3,30.09,ESE,119,4.0,7.0,62,0.00,,,0.00,Wunderground v.1.15,2013-08-06 16:20:00,
2013-08-06 12:25:00,74.2,61.7,30.09,SE,139,5.0,8.0,65,0.00,,,0.00,Wunderground v.1.15,2013-08-06 16:25:00,
2013-08-06 12:35:00,73.7,62.5,30.10,SE,131,7.0,8.0,68,0.00,,,0.00,Wunderground v.1.15,2013-08-06 16:35:00,
2013-08-06 12:40:00,73.7,60.8,30.10,SW,221,6.0,6.0,64,0.00,,,0.00,Wunderground v.1.15,2013-08-06 16:40:00,
2013-08-06 12:45:00,73.8,62.6,30.10,SSE,157,6.0,7.0,68,0.00,,,0.00,Wunderground v.1.15,2013-08-06 16:45:00,
2013-08-06 12:55:00,73.9,61.4,30.10,SE,138,7.0,8.0,65,0.00,,,0.00,Wunderground v.1.15,2013-08-06 16:55:00,
2013-08-06 13:00:00,73.9,62.7,30.10,SE,134,6.0,7.0,68,0.00,,,0.00,Wunderground v.1.15,2013-08-06 17:00:00,
2013-08-06 13:05:00,73.7,61.2,30.10,SSE,148,7.0,7.0,65,0.00,,,0.00,Wunderground v.1.15,2013-08-06 17:05:00,
2013-08-06 13:10:00,73.8,62.2,30.10,SE,127,7.0,7.0,67,0.00,,,0.00,Wunderground v.1.15,2013-08-06 17:10:00,
2013-08-06 13:20:00,74.3,62.6,30.09,ESE,122,6.0,8.0,67,0.00,,,0.00,Wunderground v.1.15,2013-08-06 17:20:00,
2013-08-06 13:30:00,74.4,61.4,30.09,SE,138,7.0,7.0,64,0.00,,,0.00,Wunderground v.1.15,2013-08-06 17:30:00,
2013-08-06 13:35:00,74.7,61.3,30.08,SE,142,7.0,8.0,63,0.00,,,0.00,Wunderground v.1.15,2013-08-06 17:35:00,
2013-08-06 13:40:00,74.8,59.5,30.08,SE,143,7.0,7.0,59,0.00,,,0.00,Wunderground v.1.15,2013-08-06 17:40:00,
2013-08-06 13:45:00,74.9,60.5,30.09,SSE,157,7.0,10.0,61,0.00,,,0.00,Wunderground v.1.15,2013-08-06 17:45:00,
2013-08-06 13:50:00,74.6,60.3,30.09,SSE,148,7.0,11.0,61,0.00,,,0.00,Wunderground v.1.15,2013-08-06 17:50:00,
2013-08-06 14:00:00,74.9,61.5,30.09,South,176,8.0,8.0,63,0.00,,,0.00,Wunderground v.1.15,2013-08-06 18:00:00,
2013-08-06 14:05:00,75.3,62.3,30.09,SSW,212,7.0,8.0,64,0.00,,,0.00,Wunderground v.1.15,2013-08-06 18:05:00,
2013-08-06 14:10:00,75.6,62.6,30.09,SE,142,7.0,8.0,64,0.00,,,0.00,Wunderground v.1.15,2013-08-06 18:10:00,
2013-08-06 14:15:00,75.6,63.4,30.09,SSE,153,7.0,8.0,66,0.00,,,0.00,Wunderground v.1.15,2013-08-06 18:15:00,
2013-08-06 14:20:00,75.6,62.1,30.09,SSW,200,7.0,7.0,63,0.00,,,0.00,Wunderground v.1.15,2013-08-06 18:20:00,
2013-08-06 14:30:00,75.5,62.9,30.08,SE,131,7.0,7.0,65,0.00,,,0.00,Wunderground v.1.15,2013-08-06 18:30:00,
2013-08-06 14:40:00,75.3,63.2,30.08,SE,146,8.0,8.0,66,0.00,,,0.00,Wunderground v.1.15,2013-08-06 18:40:00,
2013-08-06 14:45:00,74.9,61.9,30.08,South,179,8.0,8.0,64,0.00,,,0.00,Wunderground v.1.15,2013-08-06 18:45:00,
2013-08-06 14:50:00,75.1,62.5,30.08,SSE,148,8.0,10.0,65,0.00,,,0.00,Wunderground v.1.15,2013-08-06 18:50:00,
2013-08-06 14:55:00,75.5,63.3,30.08,SE,129,7.0,10.0,66,0.00,,,0.00,Wunderground v.1.15,2013-08-06 18:55:00,
2013-08-06 15:00:00,75.9,61.9,30.08,SSE,166,7.0,7.0,62,0.00,,,0.00,Wunderground v.1.15,2013-08-06 19:00:00,
2013-08-06 15:10:00,75.5,62.9,30.08,SW,219,6.0,6.0,65,0.00,,,0.00,Wunderground v.1.15,2013-08-06 19:10:00,
2013-08-06 15:15:00,75.1,62.5,30.08,SE,134,7.0,10.0,65,0.00,,,0.00,Wunderground v.1.15,2013-08-06 19:15:00,
2013-08-06 15:20:00,75.2,61.7,30.08,SSW,204,7.0,8.0,63,0.00,,,0.00,Wunderground v.1.15,2013-08-06 19:20:00,
2013-08-06 15:25:00,75.1,60.7,30.08,SE,145,7.0,8.0,61,0.00,,,0.00,Wunderground v.1.15,2013-08-06 19:25:00,
2013-08-06 15:30:00,74.9,62.3,30.08,SE,129,8.0,8.0,65,0.00,,,0.00,Wunderground v.1.15,2013-08-06 19:30:00,
2013-08-06 15:40:00,75.0,61.5,30.08,SSE,156,8.0,10.0,63,0.00,,,0.00,Wunderground v.1.15,2013-08-06 19:40:00,
2013-08-06 15:45:00,75.1,63.0,30.08,SSE,148,8.0,10.0,66,0.00,,,0.00,Wunderground v.1.15,2013-08-06 19:45:00,
2013-08-06 15:50:00,75.3,61.8,30.08,SSE,155,8.0,9.0,63,0.00,,,0.00,Wunderground v.1.15,2013-08-06 19:50:00,
2013-08-06 15:55:00,75.6,61.7,30.08,SE,139,7.0,9.0,62,0.00,,,0.00,Wunderground v.1.15,2013-08-06 19:55:00,
2013-08-06 16:00:00,75.6,60.7,30.08,SE,145,7.0,10.0,60,0.00,,,0.00,Wunderground v.1.15,2013-08-06 20:00:00,
2013-08-06 16:05:00,75.7,61.3,30.08,SSE,168,7.0,10.0,61,0.00,,,0.00,Wunderground v.1.15,2013-08-06 20:05:00,
2013-08-06 16:15:00,75.5,62.0,30.08,SSE,153,6.0,7.0,63,0.00,,,0.00,Wunderground v.1.15,2013-08-06 20:15:00,
2013-08-06 16:20:00,75.3,61.8,30.08,SE,130,6.0,6.0,63,0.00,,,0.00,Wunderground v.1.15,2013-08-06 20:20:00,
2013-08-06 16:25:00,75.0,61.5,30.08,SSW,210,5.0,6.0,63,0.00,,,0.00,Wunderground v.1.15,2013-08-06 20:25:00,
2013-08-06 16:30:00,75.1,62.5,30.08,SE,134,4.0,7.0,65,0.00,,,0.00,Wunderground v.1.15,2013-08-06 20:30:00,
2013-08-06 16:35:00,74.9,62.3,30.08,SSE,151,6.0,7.0,65,0.00,,,0.00,Wunderground v.1.15,2013-08-06 20:35:00,
2013-08-06 16:45:00,74.7,61.7,30.08,SW,218,5.0,6.0,64,0.00,,,0.00,Wunderground v.1.15,2013-08-06 20:45:00,
2013-08-06 16:50:00,74.9,61.5,30.09,SSE,166,5.0,5.0,63,0.00,,,0.00,Wunderground v.1.15,2013-08-06 20:50:00,
2013-08-06 16:55:00,75.1,61.2,30.08,SE,131,5.0,5.0,62,0.00,,,0.00,Wunderground v.1.15,2013-08-06 20:55:00,
2013-08-06 17:00:00,75.1,62.5,30.08,SE,141,5.0,6.0,65,0.00,,,0.00,Wunderground v.1.15,2013-08-06 21:00:00,
2013-08-06 17:05:00,75.2,61.7,30.09,SSE,149,4.0,6.0,63,0.00,,,0.00,Wunderground v.1.15,2013-08-06 21:05:00,
2013-08-06 17:10:00,74.9,62.3,30.09,SSW,201,4.0,5.0,65,0.00,,,0.00,Wunderground v.1.15,2013-08-06 21:10:00,
2013-08-06 17:15:00,74.6,62.9,30.09,South,177,4.0,6.0,67,0.00,,,0.00,Wunderground v.1.15,2013-08-06 21:15:00,
2013-08-06 17:20:00,74.4,62.3,30.09,SE,143,4.0,5.0,66,0.00,,,0.00,Wunderground v.1.15,2013-08-06 21:20:00,
2013-08-06 17:25:00,74.3,62.6,30.09,ESE,106,4.0,7.0,67,0.00,,,0.00,Wunderground v.1.15,2013-08-06 21:25:00,
2013-08-06 17:30:00,74.2,63.0,30.09,ESE,121,5.0,5.0,68,0.00,,,0.00,Wunderground v.1.15,2013-08-06 21:30:00,
2013-08-06 17:40:00,74.3,62.2,30.09,SSE,159,3.0,3.0,66,0.00,,,0.00,Wunderground v.1.15,2013-08-06 21:40:00,
2013-08-06 17:45:00,74.4,62.3,30.08,South,176,3.0,5.0,66,0.00,,,0.00,Wunderground v.1.15,2013-08-06 21:45:00,
2013-08-06 17:50:00,74.4,61.0,30.08,SE,129,3.0,3.0,63,0.00,,,0.00,Wunderground v.1.15,2013-08-06 21:50:00,
2013-08-06 18:00:00,74.6,63.3,30.08,SSW,195,4.0,4.0,68,0.00,,,0.00,Wunderground v.1.15,2013-08-06 22:00:00,
2013-08-06 18:05:00,74.3,63.5,30.08,SSW,210,4.0,4.0,69,0.00,,,0.00,Wunderground v.1.15,2013-08-06 22:05:00,
2013-08-06 18:10:00,74.0,61.5,30.08,SW,217,3.0,4.0,65,0.00,,,0.00,Wunderground v.1.15,2013-08-06 22:10:00,
2013-08-06 18:15:00,73.8,61.3,30.08,SSE,155,3.0,4.0,65,0.00,,,0.00,Wunderground v.1.15,2013-08-06 22:15:00,
2013-08-06 18:20:00,73.7,62.5,30.08,SE,145,3.0,6.0,68,0.00,,,0.00,Wunderground v.1.15,2013-08-06 22:20:00,
2013-08-06 18:30:00,73.6,63.2,30.09,South,186,5.0,5.0,70,0.00,,,0.00,Wunderground v.1.15,2013-08-06 22:30:00,
2013-08-06 18:35:00,73.9,63.1,30.09,SE,140,4.0,5.0,69,0.00,,,0.00,Wunderground v.1.15,2013-08-06 22:35:00,
2013-08-06 18:40:00,74.1,63.7,30.09,SW,231,4.0,4.0,70,0.00,,,0.00,Wunderground v.1.15,2013-08-06 22:40:00,
2013-08-06 18:50:00,73.4,63.0,30.09,SSE,165,4.0,4.0,70,0.00,,,0.00,Wunderground v.1.15,2013-08-06 22:50:00,
2013-08-06 18:55:00,73.2,63.6,30.09,SE,129,3.0,4.0,72,0.00,,,0.00,Wunderground v.1.15,2013-08-06 22:55:00,
2013-08-06 19:05:00,72.8,63.6,30.09,SSE,165,3.0,6.0,73,0.00,,,0.00,Wunderground v.1.15,2013-08-06 23:05:00,
2013-08-06 19:10:00,72.8,63.6,30.09,SE,134,3.0,3.0,73,0.00,,,0.00,Wunderground v.1.15,2013-08-06 23:10:00,
2013-08-06 19:15:00,72.8,63.6,30.09,SSE,163,3.0,3.0,73,0.00,,,0.00,Wunderground v.1.15,2013-08-06 23:15:00,
2013-08-06 19:20:00,72.8,63.2,30.09,SW,215,3.0,3.0,72,0.00,,,0.00,Wunderground v.1.15,2013-08-06 23:20:00,
2013-08-06 19:25:00,72.9,63.3,30.09,SE,135,3.0,6.0,72,0.00,,,0.00,Wunderground v.1.15,2013-08-06 23:25:00,
2013-08-06 19:30:00,72.9,62.9,30.09,SSW,210,4.0,4.0,71,0.00,,,0.00,Wunderground v.1.15,2013-08-06 23:30:00,
2013-08-06 19:40:00,72.9,63.7,30.09,SSE,158,2.0,2.0,73,0.00,,,0.00,Wunderground v.1.15,2013-08-06 23:40:00,
2013-08-06 19:45:00,72.6,63.1,30.09,SSE,167,2.0,2.0,72,0.00,,,0.00,Wunderground v.1.15,2013-08-06 23:45:00,
2013-08-06 19:50:00,72.6,63.4,30.09,SE,146,2.0,4.0,73,0.00,,,0.00,Wunderground v.1.15,2013-08-06 23:50:00,
2013-08-06 20:00:00,72.3,63.2,30.09,SE,128,2.0,2.0,73,0.00,,,0.00,Wunderground v.1.15,2013-08-07 00:00:00,
2013-08-06 20:05:00,72.3,63.5,30.09,SE,145,2.0,3.0,74,0.00,,,0.00,Wunderground v.1.15,2013-08-07 00:05:00,
2013-08-06 20:15:00,72.2,63.8,30.09,SE,130,3.0,5.0,75,0.00,,,0.00,Wunderground v.1.15,2013-08-07 00:15:00,
2013-08-06 20:20:00,72.2,63.8,30.09,SE,146,3.0,3.0,75,0.00,,,0.00,Wunderground v.1.15,2013-08-07 00:20:00,
2013-08-06 20:25:00,72.1,63.7,30.09,South,174,3.0,3.0,75,0.00,,,0.00,Wunderground v.1.15,2013-08-07 00:25:00,
2013-08-06 20:30:00,72.2,63.8,30.09,SE,130,2.0,2.0,75,0.00,,,0.00,Wunderground v.1.15,2013-08-07 00:30:00,
2013-08-06 20:35:00,72.1,64.1,30.10,SSE,156,2.0,2.0,76,0.00,,,0.00,Wunderground v.1.15,2013-08-07 00:35:00,
2013-08-06 20:45:00,72.0,63.6,30.10,SW,222,2.0,4.0,75,0.00,,,0.00,Wunderground v.1.15,2013-08-07 00:45:00,
2013-08-06 20:50:00,71.9,63.5,30.10,SSW,194,2.0,2.0,75,0.00,,,0.00,Wunderground v.1.15,2013-08-07 00:50:00,
2013-08-06 20:55:00,71.9,63.9,30.10,South,187,2.0,2.0,76,0.00,,,0.00,Wunderground v.1.15,2013-08-07 00:55:00,
2013-08-06 21:00:00,71.9,64.3,30.09,SSE,150,2.0,2.0,77,0.00,,,0.00,Wunderground v.1.15,2013-08-07 01:00:00,
2013-08-06 21:10:00,71.8,64.2,30.09,South,177,1.0,1.0,77,0.00,,,0.00,Wunderground v.1.15,2013-08-07 01:10:00,
2013-08-06 21:20:00,71.8,64.2,30.10,South,174,1.0,2.0,77,0.00,,,0.00,Wunderground v.1.15,2013-08-07 01:20:00,
2013-08-06 21:25:00,71.8,63.8,30.10,South,190,2.0,2.0,76,0.00,,,0.00,Wunderground v.1.15,2013-08-07 01:25:00,
2013-08-06 21:30:00,71.8,63.4,30.10,SSW,194,2.0,5.0,75,0.00,,,0.00,Wunderground v.1.15,2013-08-07 01:30:00,
2013-08-06 21:35:00,71.9,63.9,30.10,South,176,2.0,5.0,76,0.00,,,0.00,Wunderground v.1.15,2013-08-07 01:35:00,
2013-08-06 21:40:00,71.9,64.3,30.10,SSW,210,2.0,2.0,77,0.00,,,0.00,Wunderground v.1.15,2013-08-07 01:40:00,
2013-08-06 21:45:00,71.9,64.3,30.10,SSE,150,2.0,2.0,77,0.00,,,0.00,Wunderground v.1.15,2013-08-07 01:45:00,
2013-08-06 21:50:00,71.9,64.3,30.10,SSE,148,2.0,3.0,77,0.00,,,0.00,Wunderground v.1.15,2013-08-07 01:50:00,
2013-08-06 21:55:00,71.9,63.9,30.10,South,177,2.0,3.0,76,0.00,,,0.00,Wunderground v.1.15,2013-08-07 01:55:00,
2013-08-06 22:00:00,71.9,63.9,30.10,South,188,2.0,4.0,76,0.00,,,0.00,Wunderground v.1.15,2013-08-07 02:00:00,
2013-08-06 22:05:00,71.8,63.4,30.10,SW,222,2.0,4.0,75,0.00,,,0.00,Wunderground v.1.15,2013-08-07 02:05:00,
2013-08-06 22:10:00,71.8,63.8,30.10,SE,145,2.0,2.0,76,0.00,,,0.00,Wunderground v.1.15,2013-08-07 02:10:00,
2013-08-06 22:20:00,71.8,63.4,30.10,SSE,156,2.0,2.0,75,0.00,,,0.00,Wunderground v.1.15,2013-08-07 02:20:00,
2013-08-06 22:30:00,71.8,63.8,30.10,South,189,2.0,2.0,76,0.00,,,0.00,Wunderground v.1.15,2013-08-07 02:30:00,
2013-08-06 22:35:00,71.7,63.7,30.10,SSE,166,2.0,2.0,76,0.00,,,0.00,Wunderground v.1.15,2013-08-07 02:35:00,
2013-08-06 22:40:00,71.7,64.1,30.10,SSE,160,2.0,2.0,77,0.00,,,0.00,Wunderground v.1.15,2013-08-07 02:40:00,
2013-08-06 22:45:00,71.7,64.1,30.10,SSW,192,1.0,2.0,77,0.00,,,0.00,Wunderground v.1.15,2013-08-07 02:45:00,
2013-08-06 22:50:00,71.7,64.1,30.10,SE,125,1.0,2.0,77,0.00,,,0.00,Wunderground v.1.15,2013-08-07 02:50:00,
2013-08-06 23:00:00,71.7,64.5,30.10,South,187,1.0,1.0,78,0.00,,,0.00,Wunderground v.1.15,2013-08-07 03:00:00,
2013-08-06 23:05:00,71.6,64.4,30.10,SSE,157,1.0,2.0,78,0.00,,,0.00,Wunderground v.1.15,2013-08-07 03:05:00,
2013-08-06 23:10:00,71.6,64.4,30.10,SSE,163,2.0,2.0,78,0.00,,,0.00,Wunderground v.1.15,2013-08-07 03:10:00,
2013-08-06 23:15:00,71.6,64.7,30.10,SSE,156,2.0,2.0,79,0.00,,,0.00,Wunderground v.1.15,2013-08-07 03:15:00,
2013-08-06 23:20:00,71.6,64.7,30.10,SSE,159,1.0,1.0,79,0.00,,,0.00,Wunderground v.1.15,2013-08-07 03:20:00,
2013-08-06 23:30:00,71.5,64.6,30.10,SW,224,1.0,4.0,79,0.00,,,0.00,Wunderground v.1.15,2013-08-07 03:30:00,
2013-08-06 23:40:00,71.5,64.6,30.10,SW,235,1.0,2.0,79,0.00,,,0.00,Wunderground v.1.15,2013-08-07 03:40:00,
2013-08-06 23:45:00,71.6,64.7,30.10,SSW,194,1.0,4.0,79,0.00,,,0.00,Wunderground v.1.15,2013-08-07 03:45:00,
2013-08-06 23:50:00,71.6,64.7,30.10,SSW,194,1.0,3.0,79,0.00,,,0.00,Wunderground v.1.15,2013-08-07 03:50:00,
2013-08-06 23:55:00,71.6,64.4,30.10,South,169,2.0,3.0,78,0.00,,,0.00,Wunderground v.1.15,2013-08-07 03:55:00,